sensor_id;sensor_type;location;lat;lon;timestamp;temperature;humidity
77496;SHT31;66600;48.378;9.948;2023-01-13T00:00:40;5.66;81.20
77496;SHT31;66600;48.378;9.948;2023-01-13T00:03:06;5.70;81.05
77496;SHT31;66600;48.378;9.948;2023-01-13T00:05:31;5.72;80.94
77496;SHT31;66600;48.378;9.948;2023-01-13T00:07:56;5.72;80.79
77496;SHT31;66600;48.378;9.948;2023-01-13T00:10:21;5.69;81.09
77496;SHT31;66600;48.378;9.948;2023-01-13T00:12:47;5.72;81.10
77496;SHT31;66600;48.378;9.948;2023-01-13T00:15:12;5.68;81.05
77496;SHT31;66600;48.378;9.948;2023-01-13T00:17:38;5.73;81.02
77496;SHT31;66600;48.378;9.948;2023-01-13T00:20:04;5.73;80.79
77496;SHT31;66600;48.378;9.948;2023-01-13T00:22:33;5.78;80.57
77496;SHT31;66600;48.378;9.948;2023-01-13T00:24:59;5.73;80.85
77496;SHT31;66600;48.378;9.948;2023-01-13T00:27:26;5.66;81.27
77496;SHT31;66600;48.378;9.948;2023-01-13T00:29:51;5.65;81.57
77496;SHT31;66600;48.378;9.948;2023-01-13T00:32:16;5.59;81.72
77496;SHT31;66600;48.378;9.948;2023-01-13T00:34:41;5.59;81.86
77496;SHT31;66600;48.378;9.948;2023-01-13T00:37:07;5.49;81.98
77496;SHT31;66600;48.378;9.948;2023-01-13T00:39:32;5.45;82.25
77496;SHT31;66600;48.378;9.948;2023-01-13T00:41:57;5.52;81.79
77496;SHT31;66600;48.378;9.948;2023-01-13T00:44:42;5.58;81.49
77496;SHT31;66600;48.378;9.948;2023-01-13T00:47:07;5.58;81.15
77496;SHT31;66600;48.378;9.948;2023-01-13T00:49:32;5.65;80.82
77496;SHT31;66600;48.378;9.948;2023-01-13T00:51:57;5.65;80.71
77496;SHT31;66600;48.378;9.948;2023-01-13T00:54:23;5.66;80.74
77496;SHT31;66600;48.378;9.948;2023-01-13T00:56:48;5.72;80.33
77496;SHT31;66600;48.378;9.948;2023-01-13T00:59:13;5.73;79.89
77496;SHT31;66600;48.378;9.948;2023-01-13T01:01:40;5.82;79.11
77496;SHT31;66600;48.378;9.948;2023-01-13T01:04:05;5.82;79.22
77496;SHT31;66600;48.378;9.948;2023-01-13T01:06:31;5.89;79.05
77496;SHT31;66600;48.378;9.948;2023-01-13T01:08:56;5.97;78.16
77496;SHT31;66600;48.378;9.948;2023-01-13T01:11:24;5.96;77.88
77496;SHT31;66600;48.378;9.948;2023-01-13T01:13:51;5.99;77.81
77496;SHT31;66600;48.378;9.948;2023-01-13T01:16:18;5.96;78.03
77496;SHT31;66600;48.378;9.948;2023-01-13T01:18:46;5.96;77.83
77496;SHT31;66600;48.378;9.948;2023-01-13T01:21:12;5.96;77.69
77496;SHT31;66600;48.378;9.948;2023-01-13T01:23:38;5.95;78.04
77496;SHT31;66600;48.378;9.948;2023-01-13T01:26:10;5.87;78.34
77496;SHT31;66600;48.378;9.948;2023-01-13T01:28:36;5.86;78.50
77496;SHT31;66600;48.378;9.948;2023-01-13T01:31:11;5.85;78.77
77496;SHT31;66600;48.378;9.948;2023-01-13T01:33:36;5.86;78.35
77496;SHT31;66600;48.378;9.948;2023-01-13T01:36:02;5.85;78.67
77496;SHT31;66600;48.378;9.948;2023-01-13T01:38:27;5.85;78.71
77496;SHT31;66600;48.378;9.948;2023-01-13T01:40:53;5.92;78.38
77496;SHT31;66600;48.378;9.948;2023-01-13T01:43:20;5.92;78.41
77496;SHT31;66600;48.378;9.948;2023-01-13T01:46:04;5.89;78.55
77496;SHT31;66600;48.378;9.948;2023-01-13T01:48:34;5.90;78.81
77496;SHT31;66600;48.378;9.948;2023-01-13T01:51:00;5.96;78.07
77496;SHT31;66600;48.378;9.948;2023-01-13T01:53:28;6.06;77.58
77496;SHT31;66600;48.378;9.948;2023-01-13T01:55:55;6.05;77.50
77496;SHT31;66600;48.378;9.948;2023-01-13T01:58:26;6.06;77.56
77496;SHT31;66600;48.378;9.948;2023-01-13T02:00:52;6.11;77.49
77496;SHT31;66600;48.378;9.948;2023-01-13T02:03:18;6.17;76.88
77496;SHT31;66600;48.378;9.948;2023-01-13T02:05:43;6.09;77.37
77496;SHT31;66600;48.378;9.948;2023-01-13T02:08:10;6.13;77.22
77496;SHT31;66600;48.378;9.948;2023-01-13T02:10:36;6.18;76.44
77496;SHT31;66600;48.378;9.948;2023-01-13T02:13:05;6.16;76.56
77496;SHT31;66600;48.378;9.948;2023-01-13T02:29:59;6.14;75.36
77496;SHT31;66600;48.378;9.948;2023-01-13T02:38:01;6.11;74.82
77496;SHT31;66600;48.378;9.948;2023-01-13T02:40:35;6.10;74.70
77496;SHT31;66600;48.378;9.948;2023-01-13T02:43:11;6.09;74.34
77496;SHT31;66600;48.378;9.948;2023-01-13T02:46:06;6.06;74.80
77496;SHT31;66600;48.378;9.948;2023-01-13T02:48:34;6.07;74.40
77496;SHT31;66600;48.378;9.948;2023-01-13T02:51:21;6.10;74.37
77496;SHT31;66600;48.378;9.948;2023-01-13T02:54:08;6.13;74.04
77496;SHT31;66600;48.378;9.948;2023-01-13T02:56:40;6.10;74.11
77496;SHT31;66600;48.378;9.948;2023-01-13T02:59:08;6.11;73.98
77496;SHT31;66600;48.378;9.948;2023-01-13T03:01:33;6.11;74.03
77496;SHT31;66600;48.378;9.948;2023-01-13T03:04:08;6.10;73.88
77496;SHT31;66600;48.378;9.948;2023-01-13T03:07:00;6.07;73.87
77496;SHT31;66600;48.378;9.948;2023-01-13T03:09:37;6.07;73.73
77496;SHT31;66600;48.378;9.948;2023-01-13T03:12:20;6.06;73.50
77496;SHT31;66600;48.378;9.948;2023-01-13T03:15:03;6.13;73.35
77496;SHT31;66600;48.378;9.948;2023-01-13T03:17:57;6.05;73.75
77496;SHT31;66600;48.378;9.948;2023-01-13T03:20:30;6.03;73.75
77496;SHT31;66600;48.378;9.948;2023-01-13T03:23:06;6.03;73.64
77496;SHT31;66600;48.378;9.948;2023-01-13T03:25:48;5.99;73.92
77496;SHT31;66600;48.378;9.948;2023-01-13T03:28:22;5.97;73.95
77496;SHT31;66600;48.378;9.948;2023-01-13T03:30:57;5.97;73.85
77496;SHT31;66600;48.378;9.948;2023-01-13T03:33:28;5.99;74.00
77496;SHT31;66600;48.378;9.948;2023-01-13T03:35:58;6.00;74.01
77496;SHT31;66600;48.378;9.948;2023-01-13T03:38:35;6.02;73.99
77496;SHT31;66600;48.378;9.948;2023-01-13T03:41:08;5.97;73.96
77496;SHT31;66600;48.378;9.948;2023-01-13T03:43:40;5.99;73.92
77496;SHT31;66600;48.378;9.948;2023-01-13T03:46:35;5.99;73.81
77496;SHT31;66600;48.378;9.948;2023-01-13T03:49:05;5.96;74.08
77496;SHT31;66600;48.378;9.948;2023-01-13T03:51:33;5.97;73.88
77496;SHT31;66600;48.378;9.948;2023-01-13T03:54:03;5.95;74.30
77496;SHT31;66600;48.378;9.948;2023-01-13T03:56:37;5.87;74.69
77496;SHT31;66600;48.378;9.948;2023-01-13T03:59:06;5.89;74.62
77496;SHT31;66600;48.378;9.948;2023-01-13T04:04:06;5.90;74.65
77496;SHT31;66600;48.378;9.948;2023-01-13T04:06:37;5.83;74.74
77496;SHT31;66600;48.378;9.948;2023-01-13T04:09:17;5.85;74.97
77496;SHT31;66600;48.378;9.948;2023-01-13T04:11:52;5.86;74.79
77496;SHT31;66600;48.378;9.948;2023-01-13T04:14:20;5.87;74.74
77496;SHT31;66600;48.378;9.948;2023-01-13T04:16:47;5.95;74.38
77496;SHT31;66600;48.378;9.948;2023-01-13T04:19:13;5.95;74.88
77496;SHT31;66600;48.378;9.948;2023-01-13T04:21:38;5.90;74.99
77496;SHT31;66600;48.378;9.948;2023-01-13T04:24:04;5.96;74.65
77496;SHT31;66600;48.378;9.948;2023-01-13T04:26:29;5.96;74.72
77496;SHT31;66600;48.378;9.948;2023-01-13T04:28:54;5.93;74.96
77496;SHT31;66600;48.378;9.948;2023-01-13T04:31:20;6.00;74.70
77496;SHT31;66600;48.378;9.948;2023-01-13T04:33:45;6.00;74.82
77496;SHT31;66600;48.378;9.948;2023-01-13T04:36:11;6.02;74.44
77496;SHT31;66600;48.378;9.948;2023-01-13T04:38:36;6.07;74.58
77496;SHT31;66600;48.378;9.948;2023-01-13T04:41:01;6.09;74.70
77496;SHT31;66600;48.378;9.948;2023-01-13T04:43:27;6.11;74.45
77496;SHT31;66600;48.378;9.948;2023-01-13T04:45:52;6.07;74.91
77496;SHT31;66600;48.378;9.948;2023-01-13T04:48:17;5.97;75.29
77496;SHT31;66600;48.378;9.948;2023-01-13T04:50:42;5.96;75.42
77496;SHT31;66600;48.378;9.948;2023-01-13T04:53:08;5.97;75.45
77496;SHT31;66600;48.378;9.948;2023-01-13T04:55:33;5.97;75.48
77496;SHT31;66600;48.378;9.948;2023-01-13T04:58:04;5.96;75.70
77496;SHT31;66600;48.378;9.948;2023-01-13T05:00:29;5.95;76.09
77496;SHT31;66600;48.378;9.948;2023-01-13T05:02:54;5.92;76.17
77496;SHT31;66600;48.378;9.948;2023-01-13T05:05:20;5.95;76.24
77496;SHT31;66600;48.378;9.948;2023-01-13T05:07:45;5.95;76.22
77496;SHT31;66600;48.378;9.948;2023-01-13T05:10:11;5.90;76.53
77496;SHT31;66600;48.378;9.948;2023-01-13T05:12:36;5.89;76.87
77496;SHT31;66600;48.378;9.948;2023-01-13T05:15:20;5.92;77.09
77496;SHT31;66600;48.378;9.948;2023-01-13T05:18:04;5.92;77.28
77496;SHT31;66600;48.378;9.948;2023-01-13T05:20:30;5.95;77.26
77496;SHT31;66600;48.378;9.948;2023-01-13T05:22:55;5.89;77.71
77496;SHT31;66600;48.378;9.948;2023-01-13T05:25:40;5.87;78.02
77496;SHT31;66600;48.378;9.948;2023-01-13T05:28:08;5.90;78.11
77496;SHT31;66600;48.378;9.948;2023-01-13T05:30:38;5.86;78.50
77496;SHT31;66600;48.378;9.948;2023-01-13T05:33:07;5.83;78.91
77496;SHT31;66600;48.378;9.948;2023-01-13T05:35:32;5.80;79.05
77496;SHT31;66600;48.378;9.948;2023-01-13T05:37:57;5.87;79.15
77496;SHT31;66600;48.378;9.948;2023-01-13T05:40:23;5.85;79.47
77496;SHT31;66600;48.378;9.948;2023-01-13T05:43:20;5.92;79.44
77496;SHT31;66600;48.378;9.948;2023-01-13T05:48:22;5.95;79.92
77496;SHT31;66600;48.378;9.948;2023-01-13T05:50:48;5.87;80.45
77496;SHT31;66600;48.378;9.948;2023-01-13T05:53:14;5.93;80.45
77496;SHT31;66600;48.378;9.948;2023-01-13T05:55:41;6.00;80.41
77496;SHT31;66600;48.378;9.948;2023-01-13T05:58:13;6.11;80.44
77496;SHT31;66600;48.378;9.948;2023-01-13T06:00:39;6.21;80.20
77496;SHT31;66600;48.378;9.948;2023-01-13T06:03:04;6.31;80.24
77496;SHT31;66600;48.378;9.948;2023-01-13T06:05:30;6.25;80.39
77496;SHT31;66600;48.378;9.948;2023-01-13T06:07:57;6.33;80.41
77496;SHT31;66600;48.378;9.948;2023-01-13T06:10:23;6.38;80.51
77496;SHT31;66600;48.378;9.948;2023-01-13T06:12:48;6.44;80.59
77496;SHT31;66600;48.378;9.948;2023-01-13T06:15:14;6.55;80.46
77496;SHT31;66600;48.378;9.948;2023-01-13T06:17:39;6.61;80.50
77496;SHT31;66600;48.378;9.948;2023-01-13T06:20:04;6.68;80.44
77496;SHT31;66600;48.378;9.948;2023-01-13T06:22:32;6.76;80.34
77496;SHT31;66600;48.378;9.948;2023-01-13T06:25:00;6.79;80.40
77496;SHT31;66600;48.378;9.948;2023-01-13T06:27:27;6.78;80.52
77496;SHT31;66600;48.378;9.948;2023-01-13T06:29:53;6.76;80.73
77496;SHT31;66600;48.378;9.948;2023-01-13T06:32:28;6.72;81.03
77496;SHT31;66600;48.378;9.948;2023-01-13T06:35:02;6.73;81.19
77496;SHT31;66600;48.378;9.948;2023-01-13T06:37:30;6.73;81.11
77496;SHT31;66600;48.378;9.948;2023-01-13T06:39:57;6.75;81.18
77496;SHT31;66600;48.378;9.948;2023-01-13T06:42:27;6.72;81.17
77496;SHT31;66600;48.378;9.948;2023-01-13T06:45:12;6.76;81.15
77496;SHT31;66600;48.378;9.948;2023-01-13T06:47:37;6.79;81.12
77496;SHT31;66600;48.378;9.948;2023-01-13T06:50:03;6.76;81.17
77496;SHT31;66600;48.378;9.948;2023-01-13T06:52:28;6.71;81.55
77496;SHT31;66600;48.378;9.948;2023-01-13T06:54:58;6.78;81.27
77496;SHT31;66600;48.378;9.948;2023-01-13T06:57:23;6.71;81.57
77496;SHT31;66600;48.378;9.948;2023-01-13T06:59:49;6.71;81.69
77496;SHT31;66600;48.378;9.948;2023-01-13T07:02:14;6.73;81.51
77496;SHT31;66600;48.378;9.948;2023-01-13T07:04:40;6.81;81.13
77496;SHT31;66600;48.378;9.948;2023-01-13T07:07:05;6.79;81.23
77496;SHT31;66600;48.378;9.948;2023-01-13T07:09:32;6.79;81.23
77496;SHT31;66600;48.378;9.948;2023-01-13T07:11:57;6.82;81.06
77496;SHT31;66600;48.378;9.948;2023-01-13T07:14:22;6.81;81.22
77496;SHT31;66600;48.378;9.948;2023-01-13T07:17:07;6.82;81.34
77496;SHT31;66600;48.378;9.948;2023-01-13T07:19:32;6.85;80.74
77496;SHT31;66600;48.378;9.948;2023-01-13T07:21:57;6.86;80.77
77496;SHT31;66600;48.378;9.948;2023-01-13T07:24:22;6.93;80.53
77496;SHT31;66600;48.378;9.948;2023-01-13T07:26:49;6.95;80.54
77496;SHT31;66600;48.378;9.948;2023-01-13T07:29:15;6.89;80.73
77496;SHT31;66600;48.378;9.948;2023-01-13T07:31:40;6.93;80.75
77496;SHT31;66600;48.378;9.948;2023-01-13T07:34:06;6.97;80.51
77496;SHT31;66600;48.378;9.948;2023-01-13T07:36:31;7.00;80.61
77496;SHT31;66600;48.378;9.948;2023-01-13T07:38:56;7.00;80.49
77496;SHT31;66600;48.378;9.948;2023-01-13T07:41:22;7.00;80.52
77496;SHT31;66600;48.378;9.948;2023-01-13T07:44:06;7.01;80.59
77496;SHT31;66600;48.378;9.948;2023-01-13T07:46:34;6.97;80.59
77496;SHT31;66600;48.378;9.948;2023-01-13T07:48:59;6.95;80.79
77496;SHT31;66600;48.378;9.948;2023-01-13T07:51:25;6.96;80.99
77496;SHT31;66600;48.378;9.948;2023-01-13T07:53:50;7.03;80.67
77496;SHT31;66600;48.378;9.948;2023-01-13T07:56:15;6.97;80.97
77496;SHT31;66600;48.378;9.948;2023-01-13T07:58:41;6.97;81.09
77496;SHT31;66600;48.378;9.948;2023-01-13T08:01:08;6.96;81.14
77496;SHT31;66600;48.378;9.948;2023-01-13T08:03:33;7.01;81.08
77496;SHT31;66600;48.378;9.948;2023-01-13T08:06:02;7.03;81.07
77496;SHT31;66600;48.378;9.948;2023-01-13T08:08:28;7.01;81.28
77496;SHT31;66600;48.378;9.948;2023-01-13T08:10:53;6.97;81.54
77496;SHT31;66600;48.378;9.948;2023-01-13T08:13:19;7.09;81.52
77496;SHT31;66600;48.378;9.948;2023-01-13T08:15:50;7.14;81.12
77496;SHT31;66600;48.378;9.948;2023-01-13T08:18:18;7.06;81.60
77496;SHT31;66600;48.378;9.948;2023-01-13T08:20:45;7.09;81.56
77496;SHT31;66600;48.378;9.948;2023-01-13T08:23:10;7.04;81.56
77496;SHT31;66600;48.378;9.948;2023-01-13T08:25:36;7.04;81.72
77496;SHT31;66600;48.378;9.948;2023-01-13T08:28:02;7.01;81.84
77496;SHT31;66600;48.378;9.948;2023-01-13T08:30:27;7.01;81.85
77496;SHT31;66600;48.378;9.948;2023-01-13T08:32:53;7.06;81.52
77496;SHT31;66600;48.378;9.948;2023-01-13T08:35:19;7.04;81.62
77496;SHT31;66600;48.378;9.948;2023-01-13T08:37:45;7.07;81.68
77496;SHT31;66600;48.378;9.948;2023-01-13T08:40:11;7.11;81.56
77496;SHT31;66600;48.378;9.948;2023-01-13T08:42:38;7.07;81.44
77496;SHT31;66600;48.378;9.948;2023-01-13T08:45:04;7.11;81.58
77496;SHT31;66600;48.378;9.948;2023-01-13T08:47:30;7.10;81.52
77496;SHT31;66600;48.378;9.948;2023-01-13T08:49:55;7.20;81.13
77496;SHT31;66600;48.378;9.948;2023-01-13T08:52:21;7.21;81.12
77496;SHT31;66600;48.378;9.948;2023-01-13T08:54:46;7.28;80.84
77496;SHT31;66600;48.378;9.948;2023-01-13T08:57:12;7.31;80.88
77496;SHT31;66600;48.378;9.948;2023-01-13T08:59:37;7.34;80.49
77496;SHT31;66600;48.378;9.948;2023-01-13T09:02:11;7.32;80.79
77496;SHT31;66600;48.378;9.948;2023-01-13T09:04:37;7.41;80.52
77496;SHT31;66600;48.378;9.948;2023-01-13T09:07:02;7.47;80.35
77496;SHT31;66600;48.378;9.948;2023-01-13T09:09:28;7.54;79.87
77496;SHT31;66600;48.378;9.948;2023-01-13T09:11:53;7.57;79.89
77496;SHT31;66600;48.378;9.948;2023-01-13T09:14:37;7.54;80.13
77496;SHT31;66600;48.378;9.948;2023-01-13T09:17:04;7.54;80.16
77496;SHT31;66600;48.378;9.948;2023-01-13T09:19:29;7.61;79.92
77496;SHT31;66600;48.378;9.948;2023-01-13T09:21:55;7.68;79.86
77496;SHT31;66600;48.378;9.948;2023-01-13T09:24:22;7.85;79.31
77496;SHT31;66600;48.378;9.948;2023-01-13T09:26:47;8.07;78.67
77496;SHT31;66600;48.378;9.948;2023-01-13T09:29:13;8.22;78.17
77496;SHT31;66600;48.378;9.948;2023-01-13T09:31:39;8.33;77.79
77496;SHT31;66600;48.378;9.948;2023-01-13T09:34:05;8.50;77.63
77496;SHT31;66600;48.378;9.948;2023-01-13T09:36:49;8.78;76.19
77496;SHT31;66600;48.378;9.948;2023-01-13T09:39:15;8.83;76.05
77496;SHT31;66600;48.378;9.948;2023-01-13T09:41:46;8.86;76.38
77496;SHT31;66600;48.378;9.948;2023-01-13T09:47:18;8.68;76.85
77496;SHT31;66600;48.378;9.948;2023-01-13T09:49:45;8.54;77.52
77496;SHT31;66600;48.378;9.948;2023-01-13T09:52:23;8.48;77.35
77496;SHT31;66600;48.378;9.948;2023-01-13T09:54:56;8.45;77.27
77496;SHT31;66600;48.378;9.948;2023-01-13T09:57:23;8.50;77.51
77496;SHT31;66600;48.378;9.948;2023-01-13T09:59:51;8.61;77.31
77496;SHT31;66600;48.378;9.948;2023-01-13T10:02:36;8.62;77.10
77496;SHT31;66600;48.378;9.948;2023-01-13T10:05:21;8.62;77.34
77496;SHT31;66600;48.378;9.948;2023-01-13T10:07:56;8.62;77.07
77496;SHT31;66600;48.378;9.948;2023-01-13T10:10:35;8.62;77.27
77496;SHT31;66600;48.378;9.948;2023-01-13T10:13:14;8.55;77.21
77496;SHT31;66600;48.378;9.948;2023-01-13T10:15:45;8.58;77.07
77496;SHT31;66600;48.378;9.948;2023-01-13T10:18:18;8.60;76.84
77496;SHT31;66600;48.378;9.948;2023-01-13T10:20:58;8.58;76.59
77496;SHT31;66600;48.378;9.948;2023-01-13T10:23:57;8.58;76.69
77496;SHT31;66600;48.378;9.948;2023-01-13T10:26:43;8.68;76.69
77496;SHT31;66600;48.378;9.948;2023-01-13T10:29:25;8.76;76.52
77496;SHT31;66600;48.378;9.948;2023-01-13T10:31:52;8.89;76.46
77496;SHT31;66600;48.378;9.948;2023-01-13T10:34:18;8.90;76.17
77496;SHT31;66600;48.378;9.948;2023-01-13T10:36:59;8.88;76.25
77496;SHT31;66600;48.378;9.948;2023-01-13T10:39:44;8.86;76.50
77496;SHT31;66600;48.378;9.948;2023-01-13T10:42:13;8.99;75.75
77496;SHT31;66600;48.378;9.948;2023-01-13T10:44:53;9.22;75.66
77496;SHT31;66600;48.378;9.948;2023-01-13T10:47:27;9.51;74.71
77496;SHT31;66600;48.378;9.948;2023-01-13T10:52:32;9.40;74.35
77496;SHT31;66600;48.378;9.948;2023-01-13T10:55:01;9.50;75.00
77496;SHT31;66600;48.378;9.948;2023-01-13T10:57:27;9.34;75.89
77496;SHT31;66600;48.378;9.948;2023-01-13T10:59:53;9.09;77.84
77496;SHT31;66600;48.378;9.948;2023-01-13T11:02:27;9.20;76.49
77496;SHT31;66600;48.378;9.948;2023-01-13T11:07:35;8.72;78.41
77496;SHT31;66600;48.378;9.948;2023-01-13T11:15:42;8.41;80.96
77496;SHT31;66600;48.378;9.948;2023-01-13T11:18:17;8.31;81.89
77496;SHT31;66600;48.378;9.948;2023-01-13T11:20:45;8.27;82.93
77496;SHT31;66600;48.378;9.948;2023-01-13T11:23:32;8.27;82.69
77496;SHT31;66600;48.378;9.948;2023-01-13T11:26:08;8.33;82.46
77496;SHT31;66600;48.378;9.948;2023-01-13T11:28:54;8.61;81.96
77496;SHT31;66600;48.378;9.948;2023-01-13T11:31:31;8.81;82.10
77496;SHT31;66600;48.378;9.948;2023-01-13T11:34:13;9.13;79.72
77496;SHT31;66600;48.378;9.948;2023-01-13T11:36:45;9.13;79.67
77496;SHT31;66600;48.378;9.948;2023-01-13T11:39:33;9.45;78.39
77496;SHT31;66600;48.378;9.948;2023-01-13T11:42:17;9.68;76.89
77496;SHT31;66600;48.378;9.948;2023-01-13T11:47:36;10.17;75.62
77496;SHT31;66600;48.378;9.948;2023-01-13T11:50:05;10.49;74.32
77496;SHT31;66600;48.378;9.948;2023-01-13T12:01:08;10.30;72.93
77496;SHT31;66600;48.378;9.948;2023-01-13T12:03:41;10.29;72.43
77496;SHT31;66600;48.378;9.948;2023-01-13T12:06:29;10.32;73.14
77496;SHT31;66600;48.378;9.948;2023-01-13T12:09:20;10.05;72.62
77496;SHT31;66600;48.378;9.948;2023-01-13T12:17:44;10.09;71.80
77496;SHT31;66600;48.378;9.948;2023-01-13T12:23:00;8.41;71.48
77496;SHT31;66600;48.378;9.948;2023-01-13T12:25:42;5.97;82.77
77496;SHT31;66600;48.378;9.948;2023-01-13T12:28:13;5.34;83.64
77496;SHT31;66600;48.378;9.948;2023-01-13T12:30:55;4.65;85.98
77496;SHT31;66600;48.378;9.948;2023-01-13T12:33:47;4.28;86.99
77496;SHT31;66600;48.378;9.948;2023-01-13T12:38:56;4.07;89.31
77496;SHT31;66600;48.378;9.948;2023-01-13T12:41:41;4.08;89.92
77496;SHT31;66600;48.378;9.948;2023-01-13T12:44:28;4.10;89.29
77496;SHT31;66600;48.378;9.948;2023-01-13T12:46:55;4.10;89.37
77496;SHT31;66600;48.378;9.948;2023-01-13T12:57:27;4.18;87.21
77496;SHT31;66600;48.378;9.948;2023-01-13T13:02:33;4.40;84.23
77496;SHT31;66600;48.378;9.948;2023-01-13T13:08:05;4.51;83.86
77496;SHT31;66600;48.378;9.948;2023-01-13T13:10:37;4.63;81.65
77496;SHT31;66600;48.378;9.948;2023-01-13T13:13:21;4.65;81.96
77496;SHT31;66600;48.378;9.948;2023-01-13T13:18:51;4.76;81.55
77496;SHT31;66600;48.378;9.948;2023-01-13T13:21:17;5.06;79.31
77496;SHT31;66600;48.378;9.948;2023-01-13T13:24:00;5.13;80.37
77496;SHT31;66600;48.378;9.948;2023-01-13T13:29:32;5.19;79.97
77496;SHT31;66600;48.378;9.948;2023-01-13T13:39:50;5.44;80.03
77496;SHT31;66600;48.378;9.948;2023-01-13T13:42:42;5.48;78.81
77496;SHT31;66600;48.378;9.948;2023-01-13T13:45:27;5.51;79.57
77496;SHT31;66600;48.378;9.948;2023-01-13T13:48:25;5.54;78.73
77496;SHT31;66600;48.378;9.948;2023-01-13T13:50:53;5.55;77.50
77496;SHT31;66600;48.378;9.948;2023-01-13T13:53:39;5.63;78.00
77496;SHT31;66600;48.378;9.948;2023-01-13T13:56:15;5.68;78.07
77496;SHT31;66600;48.378;9.948;2023-01-13T13:58:41;5.72;77.49
77496;SHT31;66600;48.378;9.948;2023-01-13T14:01:41;5.79;78.08
77496;SHT31;66600;48.378;9.948;2023-01-13T14:04:32;5.80;77.86
77496;SHT31;66600;48.378;9.948;2023-01-13T14:07:00;5.76;78.35
77496;SHT31;66600;48.378;9.948;2023-01-13T14:09:43;5.79;77.67
77496;SHT31;66600;48.378;9.948;2023-01-13T14:12:25;5.89;77.87
77496;SHT31;66600;48.378;9.948;2023-01-13T14:14:51;5.95;77.53
77496;SHT31;66600;48.378;9.948;2023-01-13T14:17:23;6.00;77.76
77496;SHT31;66600;48.378;9.948;2023-01-13T14:19:55;6.06;76.68
77496;SHT31;66600;48.378;9.948;2023-01-13T14:22:22;6.16;76.91
77496;SHT31;66600;48.378;9.948;2023-01-13T14:24:48;6.18;76.19
77496;SHT31;66600;48.378;9.948;2023-01-13T14:27:20;6.31;75.55
77496;SHT31;66600;48.378;9.948;2023-01-13T14:29:46;6.34;75.47
77496;SHT31;66600;48.378;9.948;2023-01-13T14:32:16;6.38;75.31
77496;SHT31;66600;48.378;9.948;2023-01-13T14:34:42;6.41;75.84
77496;SHT31;66600;48.378;9.948;2023-01-13T14:39:52;6.35;75.86
77496;SHT31;66600;48.378;9.948;2023-01-13T14:42:18;6.35;76.67
77496;SHT31;66600;48.378;9.948;2023-01-13T14:44:48;6.34;77.65
77496;SHT31;66600;48.378;9.948;2023-01-13T14:47:24;6.31;76.66
77496;SHT31;66600;48.378;9.948;2023-01-13T14:52:30;6.30;76.64
77496;SHT31;66600;48.378;9.948;2023-01-13T14:57:38;6.25;77.19
77496;SHT31;66600;48.378;9.948;2023-01-13T15:02:46;6.35;77.41
77496;SHT31;66600;48.378;9.948;2023-01-13T15:08:17;6.28;77.88
77496;SHT31;66600;48.378;9.948;2023-01-13T15:10:50;6.03;78.82
77496;SHT31;66600;48.378;9.948;2023-01-13T15:15:55;5.80;79.38
77496;SHT31;66600;48.378;9.948;2023-01-13T15:18:21;5.76;79.11
77496;SHT31;66600;48.378;9.948;2023-01-13T15:20:46;5.73;79.14
77496;SHT31;66600;48.378;9.948;2023-01-13T15:23:11;5.70;79.48
77496;SHT31;66600;48.378;9.948;2023-01-13T15:25:38;5.62;80.25
77496;SHT31;66600;48.378;9.948;2023-01-13T15:28:05;5.62;80.13
77496;SHT31;66600;48.378;9.948;2023-01-13T15:30:32;5.63;79.94
77496;SHT31;66600;48.378;9.948;2023-01-13T15:32:58;5.72;79.96
77496;SHT31;66600;48.378;9.948;2023-01-13T15:35:26;5.78;79.72
77496;SHT31;66600;48.378;9.948;2023-01-13T15:37:54;5.86;79.39
77496;SHT31;66600;48.378;9.948;2023-01-13T15:40:27;5.83;80.20
77496;SHT31;66600;48.378;9.948;2023-01-13T15:42:53;5.76;80.40
77496;SHT31;66600;48.378;9.948;2023-01-13T15:45:38;5.90;79.42
77496;SHT31;66600;48.378;9.948;2023-01-13T15:48:25;6.02;78.73
77496;SHT31;66600;48.378;9.948;2023-01-13T15:50:52;6.07;78.95
77496;SHT31;66600;48.378;9.948;2023-01-13T15:53:17;6.13;78.24
77496;SHT31;66600;48.378;9.948;2023-01-13T15:55:44;6.11;78.72
77496;SHT31;66600;48.378;9.948;2023-01-13T15:58:13;6.09;79.12
77496;SHT31;66600;48.378;9.948;2023-01-13T16:00:40;6.02;79.78
77496;SHT31;66600;48.378;9.948;2023-01-13T16:03:10;5.90;80.22
77496;SHT31;66600;48.378;9.948;2023-01-13T16:05:35;5.82;80.48
77496;SHT31;66600;48.378;9.948;2023-01-13T16:08:00;5.78;80.73
77496;SHT31;66600;48.378;9.948;2023-01-13T16:10:27;5.79;80.34
77496;SHT31;66600;48.378;9.948;2023-01-13T16:12:53;5.82;80.45
77496;SHT31;66600;48.378;9.948;2023-01-13T16:15:20;5.82;80.40
77496;SHT31;66600;48.378;9.948;2023-01-13T16:17:53;5.87;80.01
77496;SHT31;66600;48.378;9.948;2023-01-13T16:20:19;5.95;79.76
77496;SHT31;66600;48.378;9.948;2023-01-13T16:22:45;5.99;79.87
77496;SHT31;66600;48.378;9.948;2023-01-13T16:25:19;5.87;80.98
77496;SHT31;66600;48.378;9.948;2023-01-13T16:27:45;5.79;81.01
77496;SHT31;66600;48.378;9.948;2023-01-13T16:30:33;5.73;81.28
77496;SHT31;66600;48.378;9.948;2023-01-13T16:32:59;5.66;81.54
77496;SHT31;66600;48.378;9.948;2023-01-13T16:35:25;5.59;81.66
77496;SHT31;66600;48.378;9.948;2023-01-13T16:37:50;5.55;81.60
77496;SHT31;66600;48.378;9.948;2023-01-13T16:40:24;5.49;81.77
77496;SHT31;66600;48.378;9.948;2023-01-13T16:42:50;5.60;81.16
77496;SHT31;66600;48.378;9.948;2023-01-13T16:45:16;5.65;81.06
77496;SHT31;66600;48.378;9.948;2023-01-13T16:47:42;5.73;81.03
77496;SHT31;66600;48.378;9.948;2023-01-13T16:53:00;5.69;81.82
77496;SHT31;66600;48.378;9.948;2023-01-13T16:55:26;5.66;81.38
77496;SHT31;66600;48.378;9.948;2023-01-13T16:57:52;5.75;81.75
77496;SHT31;66600;48.378;9.948;2023-01-13T17:00:17;5.80;81.18
77496;SHT31;66600;48.378;9.948;2023-01-13T17:02:43;5.85;81.06
77496;SHT31;66600;48.378;9.948;2023-01-13T17:05:12;5.95;79.84
77496;SHT31;66600;48.378;9.948;2023-01-13T17:07:38;5.96;79.46
77496;SHT31;66600;48.378;9.948;2023-01-13T17:10:04;6.00;78.85
77496;SHT31;66600;48.378;9.948;2023-01-13T17:12:29;6.05;78.53
77496;SHT31;66600;48.378;9.948;2023-01-13T17:14:55;6.02;79.01
77496;SHT31;66600;48.378;9.948;2023-01-13T17:17:22;6.00;78.73
77496;SHT31;66600;48.378;9.948;2023-01-13T17:19:48;5.95;78.61
77496;SHT31;66600;48.378;9.948;2023-01-13T17:22:14;5.86;78.98
77496;SHT31;66600;48.378;9.948;2023-01-13T17:24:39;5.89;78.74
77496;SHT31;66600;48.378;9.948;2023-01-13T17:27:05;5.80;79.30
77496;SHT31;66600;48.378;9.948;2023-01-13T17:29:30;5.89;78.15
77496;SHT31;66600;48.378;9.948;2023-01-13T17:31:57;5.89;78.05
77496;SHT31;66600;48.378;9.948;2023-01-13T17:34:24;5.90;78.51
77496;SHT31;66600;48.378;9.948;2023-01-13T17:36:49;5.93;78.28
77496;SHT31;66600;48.378;9.948;2023-01-13T17:39:19;5.92;77.76
77496;SHT31;66600;48.378;9.948;2023-01-13T17:41:45;5.89;77.44
77496;SHT31;66600;48.378;9.948;2023-01-13T17:44:15;5.87;77.37
77496;SHT31;66600;48.378;9.948;2023-01-13T17:46:41;5.97;76.94
77496;SHT31;66600;48.378;9.948;2023-01-13T17:49:10;5.95;77.16
77496;SHT31;66600;48.378;9.948;2023-01-13T17:51:36;5.96;76.77